Time,TemperatureF,DewpointF,PressureIn,WindDirection,WindDirectionDegrees,WindSpeedMPH,WindSpeedGustMPH,Humidity,HourlyPrecipIn,Conditions,Clouds,dailyrainin,SoftwareType,DateUTC
2013-03-17 00:00:00,34.3,31.5,29.93,NW,307,4.0,7.0,89,0.00,,,0.00,meteohub,2013-03-17 04:00:00,
2013-03-17 00:05:00,34.3,31.1,29.93,NW,308,3.0,7.0,88,0.00,,,0.00,meteohub,2013-03-17 04:05:00,
2013-03-17 00:10:00,34.2,30.9,29.93,NW,314,3.0,5.0,88,0.00,,,0.00,meteohub,2013-03-17 04:10:00,
2013-03-17 00:15:00,34.3,31.1,29.93,NW,321,3.0,5.0,88,0.00,,,0.00,meteohub,2013-03-17 04:15:00,
2013-03-17 00:20:00,34.3,31.1,29.94,WNW,300,4.0,5.0,88,0.00,,,0.00,meteohub,2013-03-17 04:20:00,
2013-03-17 00:25:00,34.3,31.1,29.94,NW,309,4.0,5.0,88,0.00,,,0.00,meteohub,2013-03-17 04:25:00,
2013-03-17 00:31:00,34.3,31.1,29.94,WNW,295,3.0,6.0,88,0.00,,,0.00,meteohub,2013-03-17 04:31:00,
2013-03-17 00:36:00,34.3,30.9,29.94,NW,310,3.0,6.0,87,0.00,,,0.00,meteohub,2013-03-17 04:36:00,
2013-03-17 00:41:00,34.3,30.9,29.94,NNW,347,5.0,6.0,87,0.00,,,0.00,meteohub,2013-03-17 04:41:00,
2013-03-17 00:46:00,34.3,30.9,29.94,NW,316,3.0,6.0,87,0.00,,,0.00,meteohub,2013-03-17 04:46:00,
2013-03-17 00:51:00,34.5,31.1,29.94,NW,309,3.0,6.0,87,0.00,,,0.00,meteohub,2013-03-17 04:51:00,
2013-03-17 00:56:00,34.5,30.7,29.95,NW,311,4.0,6.0,86,0.00,,,0.00,meteohub,2013-03-17 04:56:00,
2013-03-17 01:01:00,34.5,30.7,29.95,NW,326,4.0,5.0,86,0.00,,,0.00,meteohub,2013-03-17 05:01:00,
2013-03-17 01:06:00,34.7,31.3,29.94,NNW,341,3.0,6.0,87,0.00,,,0.00,meteohub,2013-03-17 05:06:00,
2013-03-17 01:11:00,34.9,31.6,29.95,WNW,287,4.0,6.0,88,0.00,,,0.00,meteohub,2013-03-17 05:11:00,
2013-03-17 01:16:00,34.9,31.5,29.94,NW,315,5.0,6.0,87,0.00,,,0.00,meteohub,2013-03-17 05:16:00,
2013-03-17 01:21:00,34.9,31.5,29.95,NW,312,3.0,8.0,87,0.00,,,0.00,meteohub,2013-03-17 05:21:00,
2013-03-17 01:26:00,34.9,31.5,29.95,NW,309,5.0,8.0,87,0.00,,,0.00,meteohub,2013-03-17 05:26:00,
2013-03-17 01:31:00,34.9,31.1,29.95,NW,319,4.0,8.0,86,0.00,,,0.00,meteohub,2013-03-17 05:31:00,
2013-03-17 01:36:00,34.7,30.9,29.95,NW,317,3.0,9.0,86,0.00,,,0.00,meteohub,2013-03-17 05:36:00,
2013-03-17 01:41:00,34.7,30.9,29.95,NW,325,5.0,10.0,86,0.00,,,0.00,meteohub,2013-03-17 05:41:00,
2013-03-17 01:46:00,34.5,30.6,29.95,NW,305,5.0,11.0,85,0.00,,,0.00,meteohub,2013-03-17 05:46:00,
2013-03-17 01:51:00,34.5,30.6,29.95,NNW,339,6.0,11.0,85,0.00,,,0.00,meteohub,2013-03-17 05:51:00,
2013-03-17 01:56:00,34.5,30.6,29.95,NNW,345,7.0,11.0,85,0.00,,,0.00,meteohub,2013-03-17 05:56:00,
2013-03-17 02:01:00,34.5,30.6,29.95,NNW,328,7.0,12.0,85,0.00,,,0.00,meteohub,2013-03-17 06:01:00,
2013-03-17 02:06:00,34.5,30.2,29.94,NW,314,8.0,12.0,84,0.00,,,0.00,meteohub,2013-03-17 06:06:00,
2013-03-17 02:11:00,34.3,30.0,29.95,NNW,327,8.0,12.0,84,0.00,,,0.00,meteohub,2013-03-17 06:11:00,
2013-03-17 02:16:00,34.3,29.7,29.95,North,349,10.0,12.0,83,0.00,,,0.00,meteohub,2013-03-17 06:16:00,
2013-03-17 02:21:00,34.5,29.8,29.95,NNW,338,8.0,14.0,83,0.00,,,0.00,meteohub,2013-03-17 06:21:00,
2013-03-17 02:26:00,34.5,29.8,29.95,NW,316,6.0,14.0,83,0.00,,,0.00,meteohub,2013-03-17 06:26:00,
2013-03-17 02:31:00,34.5,29.8,29.95,NNW,342,9.0,14.0,83,0.00,,,0.00,meteohub,2013-03-17 06:31:00,
2013-03-17 02:36:00,34.3,29.5,29.95,NNE,15,7.0,13.0,82,0.00,,,0.00,meteohub,2013-03-17 06:36:00,
2013-03-17 02:41:00,34.5,29.7,29.95,NW,321,10.0,14.0,82,0.00,,,0.00,meteohub,2013-03-17 06:41:00,
2013-03-17 02:47:00,34.3,29.5,29.95,NNW,333,10.0,14.0,82,0.00,,,0.00,meteohub,2013-03-17 06:47:00,
2013-03-17 02:52:00,34.3,29.1,29.95,NNW,341,8.0,14.0,81,0.00,,,0.00,meteohub,2013-03-17 06:52:00,
2013-03-17 02:57:00,34.3,29.1,29.95,NNW,328,6.0,13.0,81,0.00,,,0.00,meteohub,2013-03-17 06:57:00,
2013-03-17 03:02:00,34.3,28.6,29.95,NNW,328,6.0,13.0,79,0.00,,,0.00,meteohub,2013-03-17 07:02:00,
2013-03-17 03:07:00,34.3,29.1,29.95,NNW,340,9.0,13.0,81,0.00,,,0.00,meteohub,2013-03-17 07:07:00,
2013-03-17 03:12:00,34.3,28.8,29.95,North,8,10.0,12.0,80,0.00,,,0.00,meteohub,2013-03-17 07:12:00,
2013-03-17 03:17:00,34.3,28.6,29.95,NNE,33,7.0,12.0,79,0.00,,,0.00,meteohub,2013-03-17 07:17:00,
2013-03-17 03:22:00,34.3,28.6,29.96,North,355,7.0,15.0,79,0.00,,,0.00,meteohub,2013-03-17 07:22:00,
2013-03-17 03:27:00,34.3,28.2,29.96,NNW,335,11.0,15.0,78,0.00,,,0.00,meteohub,2013-03-17 07:27:00,
2013-03-17 03:32:00,34.3,27.9,29.95,NW,326,10.0,14.0,77,0.00,,,0.00,meteohub,2013-03-17 07:32:00,
2013-03-17 03:37:00,34.2,27.3,29.95,NNE,17,14.0,14.0,76,0.00,,,0.00,meteohub,2013-03-17 07:37:00,
2013-03-17 03:42:00,34.2,27.1,29.95,North,354,10.0,15.0,75,0.00,,,0.00,meteohub,2013-03-17 07:42:00,
2013-03-17 03:47:00,34.2,26.1,29.95,NNW,340,10.0,15.0,72,0.00,,,0.00,meteohub,2013-03-17 07:47:00,
2013-03-17 03:52:00,34.2,26.4,29.96,NW,321,4.0,15.0,73,0.00,,,0.00,meteohub,2013-03-17 07:52:00,
2013-03-17 03:57:00,34.0,26.2,29.96,NNW,344,11.0,15.0,73,0.00,,,0.00,meteohub,2013-03-17 07:57:00,
2013-03-17 04:02:00,34.0,25.9,29.96,NW,318,12.0,16.0,72,0.00,,,0.00,meteohub,2013-03-17 08:02:00,
2013-03-17 04:07:00,34.0,26.2,29.97,NW,325,12.0,16.0,73,0.00,,,0.00,meteohub,2013-03-17 08:07:00,
2013-03-17 04:12:00,34.0,25.5,29.98,NW,319,10.0,16.0,71,0.00,,,0.00,meteohub,2013-03-17 08:12:00,
2013-03-17 04:17:00,34.0,25.5,29.98,NNE,20,11.0,15.0,71,0.00,,,0.00,meteohub,2013-03-17 08:17:00,
2013-03-17 04:22:00,33.6,24.8,29.98,North,351,12.0,15.0,70,0.00,,,0.00,meteohub,2013-03-17 08:22:00,
2013-03-17 04:27:00,33.6,25.2,29.98,NNW,335,11.0,15.0,71,0.00,,,0.00,meteohub,2013-03-17 08:27:00,
2013-03-17 04:32:00,33.6,24.8,29.99,NW,326,10.0,15.0,70,0.00,,,0.00,meteohub,2013-03-17 08:32:00,
2013-03-17 04:37:00,33.4,24.8,29.99,NNE,20,10.0,14.0,70,0.00,,,0.00,meteohub,2013-03-17 08:37:00,
2013-03-17 04:42:00,33.3,25.2,29.98,North,11,12.0,16.0,72,0.00,,,0.00,meteohub,2013-03-17 08:42:00,
2013-03-17 04:47:00,33.3,25.2,29.98,North,11,12.0,18.0,72,0.00,,,0.00,meteohub,2013-03-17 08:47:00,
2013-03-17 04:52:00,33.1,25.0,29.99,North,9,12.0,18.0,72,0.00,,,0.00,meteohub,2013-03-17 08:52:00,
2013-03-17 04:57:00,33.1,25.3,29.99,NNW,338,9.0,18.0,73,0.00,,,0.00,meteohub,2013-03-17 08:57:00,
2013-03-17 05:02:00,33.1,25.7,29.99,NNW,328,10.0,17.0,74,0.00,,,0.00,meteohub,2013-03-17 09:02:00,
2013-03-17 05:07:00,32.9,25.2,29.99,NNE,12,13.0,16.0,73,0.00,,,0.00,meteohub,2013-03-17 09:07:00,
2013-03-17 05:13:00,32.9,25.5,30.00,NNW,338,12.0,16.0,74,0.00,,,0.00,meteohub,2013-03-17 09:13:00,
2013-03-17 05:18:00,32.7,24.6,30.00,NNW,347,8.0,16.0,72,0.00,,,0.00,meteohub,2013-03-17 09:18:00,
2013-03-17 05:23:00,32.7,24.6,30.01,NW,314,11.0,18.0,72,0.00,,,0.00,meteohub,2013-03-17 09:23:00,
2013-03-17 05:28:00,32.7,25.3,30.01,NNW,328,10.0,18.0,74,0.00,,,0.00,meteohub,2013-03-17 09:28:00,
2013-03-17 05:33:00,32.5,24.8,30.01,NNW,341,13.0,18.0,73,0.00,,,0.00,meteohub,2013-03-17 09:33:00,
2013-03-17 05:38:00,32.5,25.5,30.01,NNW,335,9.0,20.0,75,0.00,,,0.00,meteohub,2013-03-17 09:38:00,
2013-03-17 05:43:00,32.4,24.6,30.01,NW,312,8.0,20.0,73,0.00,,,0.00,meteohub,2013-03-17 09:43:00,
2013-03-17 05:48:00,32.4,24.6,30.01,NNW,333,12.0,20.0,73,0.00,,,0.00,meteohub,2013-03-17 09:48:00,
2013-03-17 05:53:00,32.2,24.4,30.02,NNW,339,8.0,20.0,73,0.00,,,0.00,meteohub,2013-03-17 09:53:00,
2013-03-17 05:58:00,32.2,24.4,30.02,NNW,329,10.0,17.0,73,0.00,,,0.00,meteohub,2013-03-17 09:58:00,
2013-03-17 06:03:00,32.2,24.8,30.02,NW,326,11.0,17.0,74,0.00,,,0.00,meteohub,2013-03-17 10:03:00,
2013-03-17 06:08:00,31.8,24.1,30.02,NNW,333,10.0,17.0,73,0.00,,,0.00,meteohub,2013-03-17 10:08:00,
2013-03-17 06:13:00,31.8,24.1,30.03,NW,309,8.0,17.0,73,0.00,,,0.00,meteohub,2013-03-17 10:13:00,
2013-03-17 06:18:00,31.8,24.4,30.03,NW,318,11.0,17.0,74,0.00,,,0.00,meteohub,2013-03-17 10:18:00,
2013-03-17 06:23:00,31.5,24.4,30.03,NW,315,5.0,17.0,75,0.00,,,0.00,meteohub,2013-03-17 10:23:00,
2013-03-17 06:28:00,31.5,24.4,30.03,NW,315,5.0,16.0,75,0.00,,,0.00,meteohub,2013-03-17 10:28:00,
2013-03-17 07:37:00,31.6,21.2,30.06,North,-999,-999.0,-999.0,65,-99.99,,,0.00,meteohub,2013-03-17 11:37:00,
2013-03-17 07:42:00,31.6,20.8,30.07,North,-999,-999.0,-999.0,64,0.00,,,0.00,meteohub,2013-03-17 11:42:00,
2013-03-17 07:47:00,31.6,21.2,30.08,NNW,348,16.0,23.0,65,0.00,,,0.00,meteohub,2013-03-17 11:47:00,
2013-03-17 07:52:00,31.5,21.0,30.08,NNW,340,18.0,23.0,65,0.00,,,0.00,meteohub,2013-03-17 11:52:00,
2013-03-17 07:57:00,31.5,21.0,30.08,NNW,330,11.0,23.0,65,0.00,,,0.00,meteohub,2013-03-17 11:57:00,
2013-03-17 08:02:00,31.5,21.0,30.09,NW,316,20.0,25.0,65,0.00,,,0.00,meteohub,2013-03-17 12:02:00,
2013-03-17 08:07:00,31.5,21.4,30.09,NNW,336,15.0,25.0,66,0.00,,,0.00,meteohub,2013-03-17 12:07:00,
2013-03-17 08:12:00,31.3,20.8,30.09,NW,314,11.0,25.0,65,0.00,,,0.00,meteohub,2013-03-17 12:12:00,
2013-03-17 08:17:00,31.5,21.7,30.09,North,356,17.0,24.0,67,0.00,,,0.00,meteohub,2013-03-17 12:17:00,
2013-03-17 08:22:00,31.3,21.6,30.10,NW,317,14.0,24.0,67,0.00,,,0.00,meteohub,2013-03-17 12:22:00,
2013-03-17 08:27:00,31.3,20.8,30.10,NW,314,13.0,24.0,65,0.00,,,0.00,meteohub,2013-03-17 12:27:00,
2013-03-17 08:32:00,31.3,21.9,30.10,NNW,332,17.0,24.0,68,0.00,,,0.00,meteohub,2013-03-17 12:32:00,
2013-03-17 08:37:00,31.3,21.2,30.10,NW,318,14.0,23.0,66,0.00,,,0.00,meteohub,2013-03-17 12:37:00,
2013-03-17 08:42:00,31.3,21.9,30.10,NNW,328,14.0,23.0,68,0.00,,,0.00,meteohub,2013-03-17 12:42:00,
2013-03-17 08:48:00,30.9,22.3,30.10,North,4,22.0,23.0,70,0.00,,,0.00,meteohub,2013-03-17 12:48:00,
2013-03-17 08:53:00,30.7,19.9,30.10,NNW,335,14.0,23.0,64,0.00,,,0.00,meteohub,2013-03-17 12:53:00,
2013-03-17 08:58:00,30.7,21.0,30.10,WNW,290,13.0,22.0,67,0.00,,,0.00,meteohub,2013-03-17 12:58:00,
2013-03-17 09:03:00,30.7,20.3,30.11,WNW,303,9.0,22.0,65,0.00,,,0.00,meteohub,2013-03-17 13:03:00,
2013-03-17 09:08:00,30.7,20.7,30.12,NW,321,8.0,23.0,66,0.00,,,0.00,meteohub,2013-03-17 13:08:00,
2013-03-17 09:13:00,30.9,20.1,30.12,NW,317,6.0,23.0,64,0.00,,,0.00,meteohub,2013-03-17 13:13:00,
2013-03-17 09:18:00,30.9,19.4,30.12,NNW,332,17.0,23.0,62,0.00,,,0.00,meteohub,2013-03-17 13:18:00,
2013-03-17 09:23:00,30.7,18.9,30.13,NNW,333,10.0,22.0,61,0.00,,,0.00,meteohub,2013-03-17 13:23:00,
2013-03-17 09:28:00,31.3,20.8,30.13,NW,319,9.0,21.0,65,0.00,,,0.00,meteohub,2013-03-17 13:28:00,
2013-03-17 09:33:00,31.3,19.0,30.13,NW,308,11.0,18.0,60,0.00,,,0.00,meteohub,2013-03-17 13:33:00,
2013-03-17 09:38:00,31.1,18.9,30.13,NW,314,7.0,18.0,60,0.00,,,0.00,meteohub,2013-03-17 13:38:00,
2013-03-17 09:43:00,31.3,18.7,30.13,NNE,24,10.0,18.0,59,0.00,,,0.00,meteohub,2013-03-17 13:43:00,
2013-03-17 09:48:00,31.3,19.0,30.13,North,351,9.0,21.0,60,0.00,,,0.00,meteohub,2013-03-17 13:48:00,
2013-03-17 09:53:00,31.3,19.4,30.14,NW,319,9.0,21.0,61,0.00,,,0.00,meteohub,2013-03-17 13:53:00,
2013-03-17 09:58:00,31.3,19.4,30.14,NW,316,7.0,21.0,61,0.00,,,0.00,meteohub,2013-03-17 13:58:00,
2013-03-17 10:03:00,31.5,19.9,30.14,NW,314,6.0,18.0,62,0.00,,,0.00,meteohub,2013-03-17 14:03:00,
2013-03-17 10:08:00,31.5,19.6,30.14,NNW,328,6.0,18.0,61,0.00,,,0.00,meteohub,2013-03-17 14:08:00,
2013-03-17 10:13:00,31.5,19.2,30.14,NW,309,6.0,17.0,60,0.00,,,0.00,meteohub,2013-03-17 14:13:00,
2013-03-17 10:18:00,31.3,19.4,30.14,NW,326,8.0,17.0,61,0.00,,,0.00,meteohub,2013-03-17 14:18:00,
2013-03-17 10:23:00,31.3,19.0,30.14,NW,323,12.0,16.0,60,0.00,,,0.00,meteohub,2013-03-17 14:23:00,
2013-03-17 10:28:00,31.3,19.4,30.14,NNW,336,14.0,20.0,61,0.00,,,0.00,meteohub,2013-03-17 14:28:00,
2013-03-17 10:33:00,31.5,20.3,30.14,NW,312,8.0,20.0,63,0.00,,,0.00,meteohub,2013-03-17 14:33:00,
2013-03-17 10:38:00,31.5,19.9,30.15,NNW,335,6.0,20.0,62,0.00,,,0.00,meteohub,2013-03-17 14:38:00,
2013-03-17 10:43:00,31.6,21.2,30.15,NNW,330,10.0,20.0,65,0.00,,,0.00,meteohub,2013-03-17 14:43:00,
2013-03-17 10:48:00,31.6,20.5,30.15,NW,309,9.0,16.0,63,0.00,,,0.00,meteohub,2013-03-17 14:48:00,
2013-03-17 10:53:00,31.6,19.4,30.15,NNW,331,8.0,16.0,60,0.00,,,0.00,meteohub,2013-03-17 14:53:00,
2013-03-17 10:58:00,31.6,20.1,30.15,NW,305,8.0,16.0,62,0.00,,,0.00,meteohub,2013-03-17 14:58:00,
2013-03-17 11:03:00,31.8,20.7,30.15,NW,321,9.0,15.0,63,0.00,,,0.00,meteohub,2013-03-17 15:03:00,
2013-03-17 11:08:00,31.8,19.9,30.15,North,349,9.0,15.0,61,0.00,,,0.00,meteohub,2013-03-17 15:08:00,
2013-03-17 11:13:00,31.8,18.7,30.15,NW,323,6.0,15.0,58,0.00,,,0.00,meteohub,2013-03-17 15:13:00,
2013-03-17 11:18:00,32.2,19.9,30.15,NNW,335,7.0,14.0,60,0.00,,,0.00,meteohub,2013-03-17 15:18:00,
2013-03-17 11:23:00,32.2,20.3,30.15,NW,312,12.0,14.0,61,0.00,,,0.00,meteohub,2013-03-17 15:23:00,
2013-03-17 11:28:00,32.4,19.9,30.15,North,355,9.0,13.0,60,0.00,,,0.00,meteohub,2013-03-17 15:28:00,
2013-03-17 11:33:00,32.4,19.9,30.15,NW,315,9.0,13.0,60,0.00,,,0.00,meteohub,2013-03-17 15:33:00,
2013-03-17 11:38:00,32.4,20.5,30.15,NW,304,7.0,14.0,61,0.00,,,0.00,meteohub,2013-03-17 15:38:00,
2013-03-17 11:43:00,32.5,21.0,30.15,NW,324,7.0,14.0,62,0.00,,,0.00,meteohub,2013-03-17 15:43:00,
2013-03-17 11:48:00,32.5,20.1,30.15,NW,316,10.0,14.0,60,0.00,,,0.00,meteohub,2013-03-17 15:48:00,
2013-03-17 11:54:00,32.7,20.8,30.14,NW,309,10.0,15.0,61,0.00,,,0.00,meteohub,2013-03-17 15:54:00,
2013-03-17 11:59:00,32.5,19.0,30.14,WNW,285,5.0,15.0,57,0.00,,,0.00,meteohub,2013-03-17 15:59:00,
2013-03-17 12:04:00,32.7,20.8,30.14,NW,316,5.0,15.0,61,0.00,,,0.00,meteohub,2013-03-17 16:04:00,
2013-03-17 12:09:00,32.7,20.3,30.14,NNW,328,6.0,13.0,60,0.00,,,0.00,meteohub,2013-03-17 16:09:00,
2013-03-17 12:14:00,32.7,19.6,30.14,NW,309,7.0,13.0,58,0.00,,,0.00,meteohub,2013-03-17 16:14:00,
2013-03-17 12:19:00,33.1,20.7,30.14,NW,323,5.0,10.0,60,0.00,,,0.00,meteohub,2013-03-17 16:19:00,
2013-03-17 12:24:00,33.1,19.6,30.14,NW,318,11.0,11.0,57,0.00,,,0.00,meteohub,2013-03-17 16:24:00,
2013-03-17 12:29:00,33.4,21.0,30.14,NW,311,6.0,14.0,60,0.00,,,0.00,meteohub,2013-03-17 16:29:00,
2013-03-17 12:34:00,33.6,20.5,30.14,NNW,328,7.0,14.0,58,0.00,,,0.00,meteohub,2013-03-17 16:34:00,
2013-03-17 12:39:00,33.6,21.2,30.14,NW,310,10.0,14.0,60,0.00,,,0.00,meteohub,2013-03-17 16:39:00,
2013-03-17 12:44:00,33.4,20.3,30.14,NW,312,9.0,13.0,58,0.00,,,0.00,meteohub,2013-03-17 16:44:00,
2013-03-17 12:49:00,33.6,19.9,30.13,NNW,345,7.0,13.0,57,0.00,,,0.00,meteohub,2013-03-17 16:49:00,
2013-03-17 12:54:00,33.8,21.0,30.13,NW,308,7.0,13.0,59,0.00,,,0.00,meteohub,2013-03-17 16:54:00,
2013-03-17 12:59:00,34.0,20.8,30.13,WNW,296,8.0,13.0,58,0.00,,,0.00,meteohub,2013-03-17 16:59:00,
2013-03-17 13:04:00,34.0,21.6,30.13,WNW,303,10.0,13.0,60,0.00,,,0.00,meteohub,2013-03-17 17:04:00,
2013-03-17 13:09:00,34.3,23.0,30.13,WNW,288,6.0,12.0,63,0.00,,,0.00,meteohub,2013-03-17 17:09:00,
2013-03-17 13:14:00,34.5,22.1,30.13,NW,309,7.0,13.0,60,0.00,,,0.00,meteohub,2013-03-17 17:14:00,
2013-03-17 13:19:00,34.7,21.9,30.13,WNW,285,6.0,13.0,59,0.00,,,0.00,meteohub,2013-03-17 17:19:00,
2013-03-17 13:24:00,34.5,22.8,30.13,NW,309,7.0,13.0,62,0.00,,,0.00,meteohub,2013-03-17 17:24:00,
2013-03-17 13:29:00,34.3,21.0,30.14,NW,324,6.0,11.0,58,0.00,,,0.00,meteohub,2013-03-17 17:29:00,
2013-03-17 13:34:00,34.3,19.8,30.14,NW,316,9.0,11.0,55,0.00,,,0.00,meteohub,2013-03-17 17:34:00,
2013-03-17 13:39:00,34.7,22.3,30.14,NW,307,9.0,14.0,60,0.00,,,0.00,meteohub,2013-03-17 17:39:00,
2013-03-17 13:44:00,34.7,21.4,30.14,WNW,301,6.0,14.0,58,0.00,,,0.00,meteohub,2013-03-17 17:44:00,
2013-03-17 13:49:00,34.9,19.9,30.14,NW,314,8.0,13.0,54,0.00,,,0.00,meteohub,2013-03-17 17:49:00,
2013-03-17 13:54:00,34.9,19.0,30.14,NNW,327,7.0,15.0,52,0.00,,,0.00,meteohub,2013-03-17 17:54:00,
2013-03-17 13:59:00,34.9,19.4,30.14,NW,319,8.0,15.0,53,0.00,,,0.00,meteohub,2013-03-17 17:59:00,
2013-03-17 14:04:00,34.9,19.4,30.14,NW,305,12.0,15.0,53,0.00,,,0.00,meteohub,2013-03-17 18:04:00,
2013-03-17 14:09:00,34.9,18.5,30.14,NW,323,10.0,16.0,51,0.00,,,0.00,meteohub,2013-03-17 18:09:00,
2013-03-17 14:14:00,35.1,18.3,30.14,NW,308,6.0,16.0,50,0.00,,,0.00,meteohub,2013-03-17 18:14:00,
2013-03-17 14:19:00,35.2,21.6,30.14,NW,309,11.0,14.0,57,0.00,,,0.00,meteohub,2013-03-17 18:19:00,
2013-03-17 14:24:00,35.2,19.4,30.14,NW,321,6.0,14.0,52,0.00,,,0.00,meteohub,2013-03-17 18:24:00,
2013-03-17 14:29:00,35.4,20.8,30.14,WNW,294,8.0,14.0,55,0.00,,,0.00,meteohub,2013-03-17 18:29:00,
2013-03-17 14:34:00,35.2,19.8,30.14,WNW,297,6.0,11.0,53,0.00,,,0.00,meteohub,2013-03-17 18:34:00,
2013-03-17 14:39:00,35.4,20.8,30.14,WNW,302,7.0,11.0,55,0.00,,,0.00,meteohub,2013-03-17 18:39:00,
2013-03-17 14:44:00,35.6,20.7,30.14,NW,311,9.0,11.0,54,0.00,,,0.00,meteohub,2013-03-17 18:44:00,
2013-03-17 14:49:00,35.6,20.7,30.14,NW,311,5.0,11.0,54,0.00,,,0.00,meteohub,2013-03-17 18:49:00,
2013-03-17 14:54:00,35.8,20.3,30.15,NW,307,5.0,11.0,53,0.00,,,0.00,meteohub,2013-03-17 18:54:00,
2013-03-17 14:59:00,35.6,17.4,30.15,NNW,328,8.0,15.0,47,0.00,,,0.00,meteohub,2013-03-17 18:59:00,
2013-03-17 15:04:00,35.8,18.5,30.15,WNW,303,7.0,15.0,49,0.00,,,0.00,meteohub,2013-03-17 19:04:00,
2013-03-17 15:09:00,35.8,18.0,30.15,NNW,335,7.0,15.0,48,0.00,,,0.00,meteohub,2013-03-17 19:09:00,
2013-03-17 15:14:00,36.0,18.7,30.15,NW,316,9.0,13.0,49,0.00,,,0.00,meteohub,2013-03-17 19:14:00,
2013-03-17 15:19:00,36.1,18.3,30.15,WNW,303,8.0,13.0,48,0.00,,,0.00,meteohub,2013-03-17 19:19:00,
2013-03-17 15:24:00,36.1,17.8,30.15,NW,321,7.0,13.0,47,0.00,,,0.00,meteohub,2013-03-17 19:24:00,
2013-03-17 15:29:00,36.1,19.8,30.15,NNW,328,9.0,13.0,51,0.00,,,0.00,meteohub,2013-03-17 19:29:00,
2013-03-17 15:35:00,36.3,18.5,30.15,NNW,339,6.0,13.0,48,0.00,,,0.00,meteohub,2013-03-17 19:35:00,
2013-03-17 15:40:00,36.3,19.0,30.15,NW,314,6.0,14.0,49,0.00,,,0.00,meteohub,2013-03-17 19:40:00,
2013-03-17 15:45:00,36.3,17.6,30.15,NW,307,7.0,17.0,46,0.00,,,0.00,meteohub,2013-03-17 19:45:00,
2013-03-17 15:50:00,36.7,18.9,30.15,NNW,329,13.0,17.0,48,0.00,,,0.00,meteohub,2013-03-17 19:50:00,
2013-03-17 15:55:00,36.7,20.3,30.15,NW,316,6.0,17.0,51,0.00,,,0.00,meteohub,2013-03-17 19:55:00,
2013-03-17 16:00:00,36.5,18.1,30.15,NNW,342,7.0,15.0,47,0.00,,,0.00,meteohub,2013-03-17 20:00:00,
2013-03-17 16:05:00,36.3,17.6,30.16,NW,314,5.0,15.0,46,0.00,,,0.00,meteohub,2013-03-17 20:05:00,
2013-03-17 16:10:00,36.3,18.0,30.16,NW,308,7.0,12.0,47,0.00,,,0.00,meteohub,2013-03-17 20:10:00,
2013-03-17 16:15:00,36.5,20.1,30.16,WNW,298,6.0,15.0,51,0.00,,,0.00,meteohub,2013-03-17 20:15:00,
2013-03-17 16:20:00,36.5,18.1,30.16,NW,304,6.0,15.0,47,0.00,,,0.00,meteohub,2013-03-17 20:20:00,
2013-03-17 16:25:00,36.7,18.9,30.16,NW,307,8.0,10.0,48,0.00,,,0.00,meteohub,2013-03-17 20:25:00,
2013-03-17 16:30:00,36.7,18.9,30.17,NW,322,4.0,10.0,48,0.00,,,0.00,meteohub,2013-03-17 20:30:00,
2013-03-17 16:35:00,36.7,19.8,30.17,NW,314,7.0,10.0,50,0.00,,,0.00,meteohub,2013-03-17 20:35:00,
2013-03-17 16:40:00,36.7,18.3,30.17,WNW,296,6.0,11.0,47,0.00,,,0.00,meteohub,2013-03-17 20:40:00,
2013-03-17 16:45:00,36.5,18.1,30.17,NNW,339,9.0,12.0,47,0.00,,,0.00,meteohub,2013-03-17 20:45:00,
2013-03-17 16:50:00,36.7,17.4,30.17,NW,314,6.0,11.0,45,0.00,,,0.00,meteohub,2013-03-17 20:50:00,
2013-03-17 16:55:00,36.5,16.7,30.17,NW,309,8.0,11.0,44,0.00,,,0.00,meteohub,2013-03-17 20:55:00,
2013-03-17 17:00:00,36.7,17.4,30.17,NW,311,13.0,13.0,45,0.00,,,0.00,meteohub,2013-03-17 21:00:00,
2013-03-17 17:05:00,36.7,16.3,30.17,NW,314,5.0,16.0,43,0.00,,,0.00,meteohub,2013-03-17 21:05:00,
2013-03-17 17:10:00,36.5,16.2,30.17,NW,314,5.0,16.0,43,0.00,,,0.00,meteohub,2013-03-17 21:10:00,
2013-03-17 17:15:00,36.7,16.9,30.17,NNW,328,7.0,15.0,44,0.00,,,0.00,meteohub,2013-03-17 21:15:00,
2013-03-17 17:20:00,36.7,17.4,30.17,NNW,330,13.0,15.0,45,0.00,,,0.00,meteohub,2013-03-17 21:20:00,
2013-03-17 17:25:00,36.5,17.2,30.18,NNW,339,9.0,14.0,45,0.00,,,0.00,meteohub,2013-03-17 21:25:00,
2013-03-17 17:30:00,36.3,17.6,30.18,NW,321,8.0,15.0,46,0.00,,,0.00,meteohub,2013-03-17 21:30:00,
2013-03-17 17:35:00,36.5,19.2,30.18,NW,309,13.0,15.0,49,0.00,,,0.00,meteohub,2013-03-17 21:35:00,
2013-03-17 17:40:00,36.5,19.6,30.18,NW,309,10.0,17.0,50,0.00,,,0.00,meteohub,2013-03-17 21:40:00,
2013-03-17 17:45:00,36.5,17.6,30.19,NW,326,9.0,17.0,46,0.00,,,0.00,meteohub,2013-03-17 21:45:00,
2013-03-17 17:50:00,36.5,17.2,30.19,NW,307,10.0,17.0,45,0.00,,,0.00,meteohub,2013-03-17 21:50:00,
2013-03-17 17:55:00,36.5,16.2,30.19,North,356,7.0,17.0,43,0.00,,,0.00,meteohub,2013-03-17 21:55:00,
2013-03-17 18:00:00,36.5,17.6,30.19,WNW,300,6.0,19.0,46,0.00,,,0.00,meteohub,2013-03-17 22:00:00,
2013-03-17 18:05:00,36.3,17.6,30.19,WNW,291,4.0,19.0,46,0.00,,,0.00,meteohub,2013-03-17 22:05:00,
2013-03-17 18:10:00,36.3,16.5,30.19,NW,316,7.0,19.0,44,0.00,,,0.00,meteohub,2013-03-17 22:10:00,
2013-03-17 18:15:00,36.3,19.0,30.20,WNW,300,6.0,14.0,49,0.00,,,0.00,meteohub,2013-03-17 22:15:00,
2013-03-17 18:20:00,36.3,18.0,30.20,NNE,28,13.0,14.0,47,0.00,,,0.00,meteohub,2013-03-17 22:20:00,
2013-03-17 18:25:00,36.3,17.6,30.21,NW,324,10.0,17.0,46,0.00,,,0.00,meteohub,2013-03-17 22:25:00,
2013-03-17 18:30:00,36.1,17.4,30.21,NNW,344,11.0,17.0,46,0.00,,,0.00,meteohub,2013-03-17 22:30:00,
2013-03-17 18:35:00,36.1,17.8,30.21,North,349,13.0,17.0,47,0.00,,,0.00,meteohub,2013-03-17 22:35:00,
2013-03-17 18:40:00,36.1,18.9,30.21,WNW,293,6.0,18.0,49,0.00,,,0.00,meteohub,2013-03-17 22:40:00,
2013-03-17 18:45:00,36.1,16.3,30.22,NW,325,12.0,18.0,44,0.00,,,0.00,meteohub,2013-03-17 22:45:00,
2013-03-17 18:50:00,36.1,17.4,30.22,NW,326,12.0,17.0,46,0.00,,,0.00,meteohub,2013-03-17 22:50:00,
2013-03-17 18:55:00,36.1,19.2,30.22,NW,312,12.0,17.0,50,0.00,,,0.00,meteohub,2013-03-17 22:55:00,
2013-03-17 19:00:00,36.1,18.9,30.22,WNW,301,8.0,20.0,49,0.00,,,0.00,meteohub,2013-03-17 23:00:00,
2013-03-17 19:05:00,36.1,18.3,30.23,NNW,332,7.0,20.0,48,0.00,,,0.00,meteohub,2013-03-17 23:05:00,
2013-03-17 19:10:00,36.1,17.8,30.23,WNW,300,10.0,20.0,47,0.00,,,0.00,meteohub,2013-03-17 23:10:00,
2013-03-17 19:15:00,36.1,17.8,30.23,North,6,14.0,18.0,47,0.00,,,0.00,meteohub,2013-03-17 23:15:00,
2013-03-17 19:20:00,36.1,17.8,30.24,North,358,15.0,20.0,47,0.00,,,0.00,meteohub,2013-03-17 23:20:00,
2013-03-17 19:25:00,36.0,18.7,30.24,WNW,300,9.0,20.0,49,0.00,,,0.00,meteohub,2013-03-17 23:25:00,
2013-03-17 19:30:00,36.0,19.6,30.24,NNW,346,19.0,21.0,51,0.00,,,0.00,meteohub,2013-03-17 23:30:00,
2013-03-17 19:35:00,36.0,18.7,30.25,NW,326,16.0,21.0,49,0.00,,,0.00,meteohub,2013-03-17 23:35:00,
2013-03-17 19:40:00,36.0,18.7,30.25,NNW,333,14.0,21.0,49,0.00,,,0.00,meteohub,2013-03-17 23:40:00,
2013-03-17 19:45:00,36.0,19.6,30.25,North,355,21.0,22.0,51,0.00,,,0.00,meteohub,2013-03-17 23:45:00,
2013-03-17 19:50:00,36.0,20.5,30.25,NNW,330,19.0,22.0,53,0.00,,,0.00,meteohub,2013-03-17 23:50:00,
2013-03-17 19:55:00,36.0,18.1,30.25,NW,324,15.0,23.0,48,0.00,,,0.00,meteohub,2013-03-17 23:55:00,
2013-03-17 20:01:00,36.0,18.1,30.26,NNW,335,13.0,23.0,48,0.00,,,0.00,meteohub,2013-03-18 00:01:00,
2013-03-17 20:06:00,36.0,17.6,30.27,NNW,331,14.0,23.0,47,0.00,,,0.00,meteohub,2013-03-18 00:06:00,
2013-03-17 20:11:00,35.8,18.5,30.27,NNE,15,12.0,21.0,49,0.00,,,0.00,meteohub,2013-03-18 00:11:00,
2013-03-17 20:16:00,35.8,19.0,30.27,NNW,335,17.0,20.0,50,0.00,,,0.00,meteohub,2013-03-18 00:16:00,
2013-03-17 20:21:00,35.8,19.4,30.27,NW,317,12.0,20.0,51,0.00,,,0.00,meteohub,2013-03-18 00:21:00,
2013-03-17 20:26:00,35.8,20.3,30.27,NNW,348,14.0,21.0,53,0.00,,,0.00,meteohub,2013-03-18 00:26:00,
2013-03-17 20:31:00,35.6,18.9,30.27,NNW,341,13.0,21.0,50,0.00,,,0.00,meteohub,2013-03-18 00:31:00,
2013-03-17 20:36:00,35.4,17.2,30.28,North,9,16.0,21.0,47,0.00,,,0.00,meteohub,2013-03-18 00:36:00,
2013-03-17 20:41:00,35.4,18.1,30.28,North,355,14.0,21.0,49,0.00,,,0.00,meteohub,2013-03-18 00:41:00,
2013-03-17 20:46:00,35.4,19.6,30.28,NNW,337,15.0,20.0,52,0.00,,,0.00,meteohub,2013-03-18 00:46:00,
2013-03-17 20:51:00,35.2,18.5,30.28,NW,326,16.0,18.0,50,0.00,,,0.00,meteohub,2013-03-18 00:51:00,
2013-03-17 20:57:00,35.2,18.5,30.28,NNW,346,14.0,18.0,50,0.00,,,0.00,meteohub,2013-03-18 00:57:00,
2013-03-17 21:02:00,35.2,18.9,30.28,NW,321,12.0,18.0,51,0.00,,,0.00,meteohub,2013-03-18 01:02:00,
2013-03-17 21:07:00,35.2,18.9,30.29,NNW,328,9.0,18.0,51,0.00,,,0.00,meteohub,2013-03-18 01:07:00,
2013-03-17 21:12:00,35.2,18.5,30.29,NNW,328,15.0,20.0,50,0.00,,,0.00,meteohub,2013-03-18 01:12:00,
2013-03-17 21:17:00,35.1,16.9,30.30,NNE,25,11.0,20.0,47,0.00,,,0.00,meteohub,2013-03-18 01:17:00,
2013-03-17 21:22:00,35.1,16.9,30.30,North,3,12.0,18.0,47,0.00,,,0.00,meteohub,2013-03-18 01:22:00,
2013-03-17 21:27:00,34.9,16.2,30.30,NNW,347,17.0,18.0,46,0.00,,,0.00,meteohub,2013-03-18 01:27:00,
2013-03-17 21:32:00,34.9,17.2,30.30,NNW,328,17.0,20.0,48,0.00,,,0.00,meteohub,2013-03-18 01:32:00,
2013-03-17 21:37:00,34.9,17.6,30.30,NNW,347,14.0,21.0,49,0.00,,,0.00,meteohub,2013-03-18 01:37:00,
2013-03-17 21:42:00,34.9,17.2,30.31,North,352,14.0,21.0,48,0.00,,,0.00,meteohub,2013-03-18 01:42:00,
2013-03-17 21:47:00,34.7,17.1,30.31,NE,37,11.0,21.0,48,0.00,,,0.00,meteohub,2013-03-18 01:47:00,
2013-03-17 21:52:00,34.7,17.1,30.31,NNW,335,17.0,21.0,48,0.00,,,0.00,meteohub,2013-03-18 01:52:00,
2013-03-17 21:57:00,34.5,16.9,30.31,NNW,340,13.0,21.0,48,0.00,,,0.00,meteohub,2013-03-18 01:57:00,
2013-03-17 22:02:00,34.5,17.8,30.31,NNW,335,10.0,21.0,50,0.00,,,0.00,meteohub,2013-03-18 02:02:00,
2013-03-17 22:07:00,34.5,18.7,30.31,NW,309,11.0,21.0,52,0.00,,,0.00,meteohub,2013-03-18 02:07:00,
2013-03-17 22:12:00,34.5,18.7,30.32,NNW,335,13.0,20.0,52,0.00,,,0.00,meteohub,2013-03-18 02:12:00,
2013-03-17 22:17:00,34.3,16.7,30.32,North,356,14.0,20.0,48,0.00,,,0.00,meteohub,2013-03-18 02:17:00,
2013-03-17 22:22:00,34.3,17.2,30.32,NW,322,13.0,22.0,49,0.00,,,0.00,meteohub,2013-03-18 02:22:00,
2013-03-17 22:27:00,34.3,17.6,30.32,NW,311,12.0,22.0,50,0.00,,,0.00,meteohub,2013-03-18 02:27:00,
2013-03-17 22:32:00,34.3,18.1,30.32,NNW,335,14.0,21.0,51,0.00,,,0.00,meteohub,2013-03-18 02:32:00,
2013-03-17 22:37:00,34.3,18.5,30.32,NNW,335,16.0,24.0,52,0.00,,,0.00,meteohub,2013-03-18 02:37:00,
2013-03-17 22:42:00,34.2,18.9,30.33,NNW,341,11.0,24.0,53,0.00,,,0.00,meteohub,2013-03-18 02:42:00,
2013-03-17 22:47:00,34.2,18.0,30.33,NE,35,13.0,24.0,51,0.00,,,0.00,meteohub,2013-03-18 02:47:00,
2013-03-17 22:52:00,34.2,18.9,30.33,NW,325,14.0,22.0,53,0.00,,,0.00,meteohub,2013-03-18 02:52:00,
2013-03-17 22:57:00,34.2,18.9,30.33,NNW,335,17.0,22.0,53,0.00,,,0.00,meteohub,2013-03-18 02:57:00,
2013-03-17 23:03:00,34.2,20.1,30.34,North,5,10.0,22.0,56,0.00,,,0.00,meteohub,2013-03-18 03:03:00,
2013-03-17 23:08:00,34.0,17.8,30.34,NNW,338,17.0,23.0,51,0.00,,,0.00,meteohub,2013-03-18 03:08:00,
2013-03-17 23:13:00,34.0,17.8,30.34,NW,319,15.0,24.0,51,0.00,,,0.00,meteohub,2013-03-18 03:13:00,
2013-03-17 23:18:00,33.8,17.6,30.34,North,6,17.0,24.0,51,0.00,,,0.00,meteohub,2013-03-18 03:18:00,
2013-03-17 23:23:00,33.8,19.4,30.34,NW,322,15.0,24.0,55,0.00,,,0.00,meteohub,2013-03-18 03:23:00,
2013-03-17 23:28:00,33.6,17.4,30.34,NNW,347,20.0,23.0,51,0.00,,,0.00,meteohub,2013-03-18 03:28:00,
2013-03-17 23:33:00,33.6,18.3,30.34,North,9,16.0,23.0,53,0.00,,,0.00,meteohub,2013-03-18 03:33:00,
2013-03-17 23:38:00,33.6,18.7,30.33,North,10,15.0,24.0,54,0.00,,,0.00,meteohub,2013-03-18 03:38:00,
2013-03-17 23:43:00,33.4,18.5,30.34,NNE,15,18.0,24.0,54,0.00,,,0.00,meteohub,2013-03-18 03:43:00,
2013-03-17 23:48:00,33.4,17.8,30.34,WNW,302,11.0,23.0,52,0.00,,,0.00,meteohub,2013-03-18 03:48:00,
2013-03-17 23:53:00,33.4,18.1,30.34,NW,324,11.0,23.0,53,0.00,,,0.00,meteohub,2013-03-18 03:53:00,
2013-03-17 23:58:00,33.3,18.5,30.34,North,6,20.0,23.0,54,0.00,,,0.00,meteohub,2013-03-18 03:58:00,